sensor_id;sensor_type;location;lat;lon;timestamp;P1;durP1;ratioP1;P2;durP2;ratioP2
59161;SDS011;44942;48.936;8.260;2024-02-16T00:03:43;2.33;;;2.00;;
59161;SDS011;44942;48.936;8.260;2024-02-16T00:08:43;2.20;;;2.00;;
59161;SDS011;44942;48.936;8.260;2024-02-16T00:13:44;2.87;;;1.87;;
59161;SDS011;44942;48.936;8.260;2024-02-16T00:18:44;2.17;;;1.90;;
59161;SDS011;44942;48.936;8.260;2024-02-16T00:23:45;2.10;;;1.73;;
59161;SDS011;44942;48.936;8.260;2024-02-16T00:33:47;2.77;;;1.77;;
59161;SDS011;44942;48.936;8.260;2024-02-16T00:38:47;3.08;;;2.55;;
59161;SDS011;44942;48.936;8.260;2024-02-16T00:43:49;3.10;;;2.27;;
59161;SDS011;44942;48.936;8.260;2024-02-16T00:48:51;3.53;;;2.17;;
59161;SDS011;44942;48.936;8.260;2024-02-16T00:53:53;2.58;;;1.88;;
59161;SDS011;44942;48.936;8.260;2024-02-16T00:58:54;2.17;;;1.80;;
59161;SDS011;44942;48.936;8.260;2024-02-16T01:03:55;2.78;;;1.88;;
59161;SDS011;44942;48.936;8.260;2024-02-16T01:08:55;2.05;;;1.85;;
59161;SDS011;44942;48.936;8.260;2024-02-16T01:13:56;2.13;;;1.77;;
59161;SDS011;44942;48.936;8.260;2024-02-16T01:18:57;4.23;;;1.63;;
59161;SDS011;44942;48.936;8.260;2024-02-16T01:23:57;2.63;;;1.83;;
59161;SDS011;44942;48.936;8.260;2024-02-16T01:28:59;2.22;;;1.80;;
59161;SDS011;44942;48.936;8.260;2024-02-16T01:34:00;1.95;;;1.73;;
59161;SDS011;44942;48.936;8.260;2024-02-16T01:39:00;2.50;;;2.10;;
59161;SDS011;44942;48.936;8.260;2024-02-16T01:44:01;2.30;;;1.90;;
59161;SDS011;44942;48.936;8.260;2024-02-16T01:49:02;2.00;;;1.70;;
59161;SDS011;44942;48.936;8.260;2024-02-16T01:54:03;2.33;;;1.77;;
59161;SDS011;44942;48.936;8.260;2024-02-16T01:59:04;2.27;;;1.67;;
59161;SDS011;44942;48.936;8.260;2024-02-16T02:04:05;1.83;;;1.60;;
59161;SDS011;44942;48.936;8.260;2024-02-16T02:09:06;3.00;;;1.85;;
59161;SDS011;44942;48.936;8.260;2024-02-16T02:14:07;2.30;;;1.80;;
59161;SDS011;44942;48.936;8.260;2024-02-16T02:19:07;2.43;;;1.80;;
59161;SDS011;44942;48.936;8.260;2024-02-16T02:24:08;2.27;;;1.60;;
59161;SDS011;44942;48.936;8.260;2024-02-16T02:34:10;2.00;;;1.70;;
59161;SDS011;44942;48.936;8.260;2024-02-16T02:39:10;2.67;;;1.80;;
59161;SDS011;44942;48.936;8.260;2024-02-16T02:44:13;2.10;;;1.83;;
59161;SDS011;44942;48.936;8.260;2024-02-16T02:49:14;2.08;;;1.58;;
59161;SDS011;44942;48.936;8.260;2024-02-16T02:54:14;1.67;;;1.40;;
59161;SDS011;44942;48.936;8.260;2024-02-16T02:59:15;2.20;;;1.50;;
59161;SDS011;44942;48.936;8.260;2024-02-16T03:04:16;1.73;;;1.60;;
59161;SDS011;44942;48.936;8.260;2024-02-16T03:09:16;3.53;;;1.87;;
59161;SDS011;44942;48.936;8.260;2024-02-16T03:14:17;1.90;;;1.50;;
59161;SDS011;44942;48.936;8.260;2024-02-16T03:19:17;2.17;;;1.52;;
59161;SDS011;44942;48.936;8.260;2024-02-16T03:24:18;2.13;;;1.73;;
59161;SDS011;44942;48.936;8.260;2024-02-16T03:29:19;2.53;;;1.60;;
59161;SDS011;44942;48.936;8.260;2024-02-16T03:34:19;1.60;;;1.30;;
59161;SDS011;44942;48.936;8.260;2024-02-16T03:39:20;3.97;;;1.83;;
59161;SDS011;44942;48.936;8.260;2024-02-16T03:44:20;2.70;;;2.00;;
59161;SDS011;44942;48.936;8.260;2024-02-16T03:49:21;1.83;;;1.65;;
59161;SDS011;44942;48.936;8.260;2024-02-16T03:54:22;1.87;;;1.70;;
59161;SDS011;44942;48.936;8.260;2024-02-16T03:59:23;1.58;;;1.42;;
59161;SDS011;44942;48.936;8.260;2024-02-16T04:04:24;1.85;;;1.48;;
59161;SDS011;44942;48.936;8.260;2024-02-16T04:09:24;2.20;;;1.63;;
59161;SDS011;44942;48.936;8.260;2024-02-16T04:14:25;2.23;;;1.70;;
59161;SDS011;44942;48.936;8.260;2024-02-16T04:19:25;1.57;;;1.47;;
59161;SDS011;44942;48.936;8.260;2024-02-16T04:24:26;1.70;;;1.50;;
59161;SDS011;44942;48.936;8.260;2024-02-16T04:29:26;1.83;;;1.50;;
59161;SDS011;44942;48.936;8.260;2024-02-16T04:34:27;1.70;;;1.40;;
59161;SDS011;44942;48.936;8.260;2024-02-16T04:39:27;3.53;;;1.97;;
59161;SDS011;44942;48.936;8.260;2024-02-16T04:44:29;2.00;;;1.65;;
59161;SDS011;44942;48.936;8.260;2024-02-16T04:49:30;2.70;;;1.70;;
59161;SDS011;44942;48.936;8.260;2024-02-16T04:54:31;1.85;;;1.50;;
59161;SDS011;44942;48.936;8.260;2024-02-16T04:59:31;1.83;;;1.70;;
59161;SDS011;44942;48.936;8.260;2024-02-16T05:04:32;1.90;;;1.60;;
59161;SDS011;44942;48.936;8.260;2024-02-16T05:09:32;1.43;;;1.33;;
59161;SDS011;44942;48.936;8.260;2024-02-16T05:14:33;1.30;;;1.10;;
59161;SDS011;44942;48.936;8.260;2024-02-16T05:19:35;1.90;;;1.30;;
59161;SDS011;44942;48.936;8.260;2024-02-16T05:24:37;2.20;;;1.60;;
59161;SDS011;44942;48.936;8.260;2024-02-16T05:29:37;2.03;;;1.60;;
59161;SDS011;44942;48.936;8.260;2024-02-16T05:34:38;2.73;;;2.10;;
59161;SDS011;44942;48.936;8.260;2024-02-16T05:39:38;3.63;;;2.97;;
59161;SDS011;44942;48.936;8.260;2024-02-16T05:44:53;2.92;;;2.63;;
59161;SDS011;44942;48.936;8.260;2024-02-16T05:49:54;4.03;;;2.40;;
59161;SDS011;44942;48.936;8.260;2024-02-16T05:54:55;3.25;;;2.55;;
59161;SDS011;44942;48.936;8.260;2024-02-16T05:59:55;4.93;;;2.77;;
59161;SDS011;44942;48.936;8.260;2024-02-16T06:04:56;3.57;;;3.00;;
59161;SDS011;44942;48.936;8.260;2024-02-16T06:09:57;7.85;;;3.03;;
59161;SDS011;44942;48.936;8.260;2024-02-16T06:14:58;6.53;;;3.60;;
59161;SDS011;44942;48.936;8.260;2024-02-16T06:19:59;7.30;;;3.75;;
59161;SDS011;44942;48.936;8.260;2024-02-16T06:30:01;4.47;;;3.63;;
59161;SDS011;44942;48.936;8.260;2024-02-16T06:35:04;5.75;;;4.28;;
59161;SDS011;44942;48.936;8.260;2024-02-16T06:40:05;5.53;;;4.40;;
59161;SDS011;44942;48.936;8.260;2024-02-16T06:45:10;5.60;;;4.60;;
59161;SDS011;44942;48.936;8.260;2024-02-16T06:55:11;6.17;;;4.00;;
59161;SDS011;44942;48.936;8.260;2024-02-16T07:00:12;4.90;;;3.93;;
59161;SDS011;44942;48.936;8.260;2024-02-16T07:05:13;14.07;;;7.10;;
59161;SDS011;44942;48.936;8.260;2024-02-16T07:10:15;9.57;;;5.78;;
59161;SDS011;44942;48.936;8.260;2024-02-16T07:15:16;11.88;;;6.70;;
59161;SDS011;44942;48.936;8.260;2024-02-16T07:20:17;14.40;;;6.60;;
59161;SDS011;44942;48.936;8.260;2024-02-16T07:25:18;10.75;;;5.82;;
59161;SDS011;44942;48.936;8.260;2024-02-16T07:30:18;8.13;;;4.77;;
59161;SDS011;44942;48.936;8.260;2024-02-16T07:35:19;9.68;;;5.00;;
59161;SDS011;44942;48.936;8.260;2024-02-16T07:40:21;7.50;;;5.35;;
59161;SDS011;44942;48.936;8.260;2024-02-16T07:45:22;6.53;;;4.50;;
59161;SDS011;44942;48.936;8.260;2024-02-16T07:50:23;6.43;;;4.07;;
59161;SDS011;44942;48.936;8.260;2024-02-16T07:55:23;7.85;;;4.40;;
59161;SDS011;44942;48.936;8.260;2024-02-16T08:00:25;5.90;;;3.90;;
59161;SDS011;44942;48.936;8.260;2024-02-16T08:05:26;5.82;;;4.18;;
59161;SDS011;44942;48.936;8.260;2024-02-16T08:10:27;4.80;;;3.90;;
59161;SDS011;44942;48.936;8.260;2024-02-16T08:15:27;4.60;;;3.70;;
59161;SDS011;44942;48.936;8.260;2024-02-16T08:20:28;4.43;;;3.50;;
59161;SDS011;44942;48.936;8.260;2024-02-16T08:25:28;6.10;;;4.20;;
59161;SDS011;44942;48.936;8.260;2024-02-16T08:30:30;5.05;;;3.78;;
59161;SDS011;44942;48.936;8.260;2024-02-16T08:35:30;5.90;;;4.00;;
59161;SDS011;44942;48.936;8.260;2024-02-16T08:40:31;3.90;;;3.47;;
59161;SDS011;44942;48.936;8.260;2024-02-16T08:45:32;3.93;;;3.53;;
59161;SDS011;44942;48.936;8.260;2024-02-16T08:50:33;4.78;;;3.13;;
59161;SDS011;44942;48.936;8.260;2024-02-16T08:55:34;4.77;;;3.57;;
59161;SDS011;44942;48.936;8.260;2024-02-16T09:00:34;4.67;;;3.33;;
59161;SDS011;44942;48.936;8.260;2024-02-16T09:05:35;4.65;;;3.22;;
59161;SDS011;44942;48.936;8.260;2024-02-16T09:10:37;5.10;;;3.33;;
59161;SDS011;44942;48.936;8.260;2024-02-16T09:15:37;4.53;;;3.27;;
59161;SDS011;44942;48.936;8.260;2024-02-16T09:20:38;4.47;;;3.17;;
59161;SDS011;44942;48.936;8.260;2024-02-16T09:25:39;4.10;;;3.10;;
59161;SDS011;44942;48.936;8.260;2024-02-16T09:30:40;3.67;;;2.90;;
59161;SDS011;44942;48.936;8.260;2024-02-16T09:35:41;3.40;;;2.80;;
59161;SDS011;44942;48.936;8.260;2024-02-16T09:40:42;3.10;;;2.80;;
59161;SDS011;44942;48.936;8.260;2024-02-16T09:45:43;4.05;;;2.95;;
59161;SDS011;44942;48.936;8.260;2024-02-16T09:50:45;4.00;;;2.90;;
59161;SDS011;44942;48.936;8.260;2024-02-16T09:55:45;4.22;;;3.20;;
59161;SDS011;44942;48.936;8.260;2024-02-16T10:00:53;4.97;;;3.00;;
59161;SDS011;44942;48.936;8.260;2024-02-16T10:06:08;3.05;;;2.75;;
59161;SDS011;44942;48.936;8.260;2024-02-16T10:11:11;2.83;;;2.55;;
59161;SDS011;44942;48.936;8.260;2024-02-16T10:16:14;3.10;;;2.72;;
59161;SDS011;44942;48.936;8.260;2024-02-16T10:21:25;3.93;;;2.93;;
59161;SDS011;44942;48.936;8.260;2024-02-16T10:26:28;5.85;;;2.42;;
59161;SDS011;44942;48.936;8.260;2024-02-16T10:31:29;2.30;;;2.10;;
59161;SDS011;44942;48.936;8.260;2024-02-16T10:36:33;3.92;;;2.70;;
59161;SDS011;44942;48.936;8.260;2024-02-16T10:41:38;2.45;;;2.25;;
59161;SDS011;44942;48.936;8.260;2024-02-16T10:46:41;3.45;;;2.40;;
59161;SDS011;44942;48.936;8.260;2024-02-16T10:51:46;3.23;;;2.63;;
59161;SDS011;44942;48.936;8.260;2024-02-16T10:56:49;2.40;;;2.20;;
59161;SDS011;44942;48.936;8.260;2024-02-16T11:02:02;2.55;;;2.20;;
59161;SDS011;44942;48.936;8.260;2024-02-16T11:07:24;3.72;;;2.50;;
59161;SDS011;44942;48.936;8.260;2024-02-16T11:13:02;3.17;;;2.30;;
59161;SDS011;44942;48.936;8.260;2024-02-16T11:18:10;4.43;;;2.33;;
59161;SDS011;44942;48.936;8.260;2024-02-16T11:23:11;3.42;;;2.30;;
59161;SDS011;44942;48.936;8.260;2024-02-16T11:28:12;2.58;;;2.33;;
59161;SDS011;44942;48.936;8.260;2024-02-16T11:33:13;2.50;;;2.30;;
59161;SDS011;44942;48.936;8.260;2024-02-16T11:38:14;2.87;;;2.17;;
59161;SDS011;44942;48.936;8.260;2024-02-16T11:43:22;2.45;;;1.92;;
59161;SDS011;44942;48.936;8.260;2024-02-16T11:48:25;3.80;;;2.53;;
59161;SDS011;44942;48.936;8.260;2024-02-16T11:53:27;2.33;;;2.13;;
59161;SDS011;44942;48.936;8.260;2024-02-16T11:58:28;3.17;;;1.92;;
59161;SDS011;44942;48.936;8.260;2024-02-16T12:03:30;2.30;;;2.10;;
59161;SDS011;44942;48.936;8.260;2024-02-16T12:08:31;1.90;;;1.70;;
59161;SDS011;44942;48.936;8.260;2024-02-16T12:13:33;2.10;;;1.80;;
59161;SDS011;44942;48.936;8.260;2024-02-16T12:18:34;2.90;;;2.10;;
59161;SDS011;44942;48.936;8.260;2024-02-16T12:23:35;2.20;;;2.00;;
59161;SDS011;44942;48.936;8.260;2024-02-16T12:28:36;2.28;;;1.75;;
59161;SDS011;44942;48.936;8.260;2024-02-16T12:33:37;2.40;;;1.87;;
59161;SDS011;44942;48.936;8.260;2024-02-16T12:38:37;2.60;;;1.80;;
59161;SDS011;44942;48.936;8.260;2024-02-16T12:43:38;2.53;;;1.70;;
59161;SDS011;44942;48.936;8.260;2024-02-16T12:48:39;1.97;;;1.80;;
59161;SDS011;44942;48.936;8.260;2024-02-16T12:53:39;2.17;;;1.80;;
59161;SDS011;44942;48.936;8.260;2024-02-16T12:58:43;2.30;;;2.00;;
59161;SDS011;44942;48.936;8.260;2024-02-16T13:03:43;2.30;;;1.60;;
59161;SDS011;44942;48.936;8.260;2024-02-16T13:08:44;2.60;;;1.70;;
59161;SDS011;44942;48.936;8.260;2024-02-16T13:13:45;2.10;;;1.63;;
59161;SDS011;44942;48.936;8.260;2024-02-16T13:18:45;3.27;;;1.47;;
59161;SDS011;44942;48.936;8.260;2024-02-16T13:23:46;2.03;;;1.63;;
59161;SDS011;44942;48.936;8.260;2024-02-16T13:28:46;2.90;;;1.80;;
59161;SDS011;44942;48.936;8.260;2024-02-16T13:33:47;2.80;;;1.90;;
59161;SDS011;44942;48.936;8.260;2024-02-16T13:38:48;1.67;;;1.58;;
59161;SDS011;44942;48.936;8.260;2024-02-16T13:43:48;1.60;;;1.40;;
59161;SDS011;44942;48.936;8.260;2024-02-16T13:48:49;1.92;;;1.55;;
59161;SDS011;44942;48.936;8.260;2024-02-16T13:53:50;2.17;;;1.50;;
59161;SDS011;44942;48.936;8.260;2024-02-16T14:03:52;2.27;;;1.47;;
59161;SDS011;44942;48.936;8.260;2024-02-16T14:08:52;1.63;;;1.30;;
59161;SDS011;44942;48.936;8.260;2024-02-16T14:13:53;1.60;;;1.50;;
59161;SDS011;44942;48.936;8.260;2024-02-16T14:18:54;1.83;;;1.47;;
59161;SDS011;44942;48.936;8.260;2024-02-16T14:23:54;1.83;;;1.30;;
59161;SDS011;44942;48.936;8.260;2024-02-16T14:28:55;2.30;;;1.40;;
59161;SDS011;44942;48.936;8.260;2024-02-16T14:33:55;2.22;;;1.55;;
59161;SDS011;44942;48.936;8.260;2024-02-16T14:38:56;1.57;;;1.30;;
59161;SDS011;44942;48.936;8.260;2024-02-16T14:43:57;1.47;;;1.30;;
59161;SDS011;44942;48.936;8.260;2024-02-16T14:53:58;1.83;;;1.30;;
59161;SDS011;44942;48.936;8.260;2024-02-16T14:58:59;2.00;;;1.30;;
59161;SDS011;44942;48.936;8.260;2024-02-16T15:04:00;1.30;;;1.20;;
59161;SDS011;44942;48.936;8.260;2024-02-16T15:09:01;1.63;;;1.20;;
59161;SDS011;44942;48.936;8.260;2024-02-16T15:14:05;4.72;;;1.38;;
59161;SDS011;44942;48.936;8.260;2024-02-16T15:19:06;4.47;;;1.17;;
59161;SDS011;44942;48.936;8.260;2024-02-16T15:24:06;3.57;;;1.70;;
59161;SDS011;44942;48.936;8.260;2024-02-16T15:29:07;1.63;;;1.25;;
59161;SDS011;44942;48.936;8.260;2024-02-16T15:34:08;4.70;;;1.27;;
59161;SDS011;44942;48.936;8.260;2024-02-16T15:44:10;3.53;;;1.50;;
59161;SDS011;44942;48.936;8.260;2024-02-16T15:49:11;2.83;;;1.40;;
59161;SDS011;44942;48.936;8.260;2024-02-16T15:54:12;1.60;;;1.23;;
59161;SDS011;44942;48.936;8.260;2024-02-16T15:59:12;1.40;;;1.30;;
59161;SDS011;44942;48.936;8.260;2024-02-16T16:04:13;2.30;;;2.10;;
59161;SDS011;44942;48.936;8.260;2024-02-16T16:09:14;2.97;;;2.22;;
59161;SDS011;44942;48.936;8.260;2024-02-16T16:14:15;3.20;;;2.40;;
59161;SDS011;44942;48.936;8.260;2024-02-16T16:19:15;2.90;;;2.10;;
59161;SDS011;44942;48.936;8.260;2024-02-16T16:24:16;2.30;;;2.10;;
59161;SDS011;44942;48.936;8.260;2024-02-16T16:29:16;2.47;;;1.80;;
59161;SDS011;44942;48.936;8.260;2024-02-16T16:34:17;2.40;;;1.83;;
59161;SDS011;44942;48.936;8.260;2024-02-16T16:39:18;4.67;;;2.20;;
59161;SDS011;44942;48.936;8.260;2024-02-16T16:44:19;3.40;;;2.17;;
59161;SDS011;44942;48.936;8.260;2024-02-16T16:49:19;2.90;;;2.30;;
59161;SDS011;44942;48.936;8.260;2024-02-16T16:54:20;2.88;;;2.15;;
59161;SDS011;44942;48.936;8.260;2024-02-16T17:04:22;2.77;;;2.00;;
59161;SDS011;44942;48.936;8.260;2024-02-16T17:09:22;2.80;;;2.00;;
59161;SDS011;44942;48.936;8.260;2024-02-16T17:14:23;2.63;;;2.00;;
59161;SDS011;44942;48.936;8.260;2024-02-16T17:19:24;2.33;;;1.80;;
59161;SDS011;44942;48.936;8.260;2024-02-16T17:24:25;2.53;;;1.83;;
59161;SDS011;44942;48.936;8.260;2024-02-16T17:29:30;4.10;;;1.92;;
59161;SDS011;44942;48.936;8.260;2024-02-16T17:34:31;2.17;;;1.70;;
59161;SDS011;44942;48.936;8.260;2024-02-16T17:39:31;1.80;;;1.60;;
59161;SDS011;44942;48.936;8.260;2024-02-16T17:44:33;2.58;;;1.83;;
59161;SDS011;44942;48.936;8.260;2024-02-16T17:49:33;2.50;;;1.43;;
59161;SDS011;44942;48.936;8.260;2024-02-16T17:54:34;2.63;;;1.73;;
59161;SDS011;44942;48.936;8.260;2024-02-16T17:59:34;3.47;;;1.70;;
59161;SDS011;44942;48.936;8.260;2024-02-16T18:04:35;1.70;;;1.60;;
59161;SDS011;44942;48.936;8.260;2024-02-16T18:09:36;3.80;;;1.60;;
59161;SDS011;44942;48.936;8.260;2024-02-16T18:14:36;2.70;;;1.80;;
59161;SDS011;44942;48.936;8.260;2024-02-16T18:19:37;4.50;;;1.97;;
59161;SDS011;44942;48.936;8.260;2024-02-16T18:29:39;5.07;;;2.80;;
59161;SDS011;44942;48.936;8.260;2024-02-16T18:34:41;5.40;;;2.58;;
59161;SDS011;44942;48.936;8.260;2024-02-16T18:39:46;4.05;;;2.38;;
59161;SDS011;44942;48.936;8.260;2024-02-16T18:44:46;5.90;;;2.20;;
59161;SDS011;44942;48.936;8.260;2024-02-16T18:49:48;7.57;;;2.42;;
59161;SDS011;44942;48.936;8.260;2024-02-16T18:54:49;9.83;;;2.50;;
59161;SDS011;44942;48.936;8.260;2024-02-16T18:59:49;4.40;;;2.27;;
59161;SDS011;44942;48.936;8.260;2024-02-16T19:04:50;3.70;;;2.13;;
59161;SDS011;44942;48.936;8.260;2024-02-16T19:09:50;4.77;;;2.10;;
59161;SDS011;44942;48.936;8.260;2024-02-16T19:14:52;4.13;;;2.20;;
59161;SDS011;44942;48.936;8.260;2024-02-16T19:19:53;4.70;;;2.17;;
59161;SDS011;44942;48.936;8.260;2024-02-16T19:24:54;5.38;;;2.03;;
59161;SDS011;44942;48.936;8.260;2024-02-16T19:29:55;4.60;;;2.13;;
59161;SDS011;44942;48.936;8.260;2024-02-16T19:34:58;2.95;;;2.17;;
59161;SDS011;44942;48.936;8.260;2024-02-16T19:39:58;3.67;;;2.27;;
59161;SDS011;44942;48.936;8.260;2024-02-16T19:44:59;2.77;;;1.77;;
59161;SDS011;44942;48.936;8.260;2024-02-16T19:50:02;2.60;;;2.00;;
59161;SDS011;44942;48.936;8.260;2024-02-16T19:55:03;4.47;;;2.00;;
59161;SDS011;44942;48.936;8.260;2024-02-16T20:05:05;2.43;;;1.73;;
59161;SDS011;44942;48.936;8.260;2024-02-16T20:10:06;3.30;;;1.80;;
59161;SDS011;44942;48.936;8.260;2024-02-16T20:15:08;2.67;;;1.92;;
59161;SDS011;44942;48.936;8.260;2024-02-16T20:20:09;3.22;;;1.65;;
59161;SDS011;44942;48.936;8.260;2024-02-16T20:25:10;2.83;;;1.95;;
59161;SDS011;44942;48.936;8.260;2024-02-16T20:30:11;2.43;;;1.70;;
59161;SDS011;44942;48.936;8.260;2024-02-16T20:35:12;3.17;;;1.95;;
59161;SDS011;44942;48.936;8.260;2024-02-16T20:40:13;2.05;;;1.50;;
59161;SDS011;44942;48.936;8.260;2024-02-16T20:45:14;2.53;;;1.73;;
59161;SDS011;44942;48.936;8.260;2024-02-16T20:55:16;1.90;;;1.60;;
59161;SDS011;44942;48.936;8.260;2024-02-16T21:00:17;3.53;;;1.50;;
59161;SDS011;44942;48.936;8.260;2024-02-16T21:05:18;1.52;;;1.40;;
59161;SDS011;44942;48.936;8.260;2024-02-16T21:10:21;2.53;;;1.52;;
59161;SDS011;44942;48.936;8.260;2024-02-16T21:15:22;2.25;;;1.55;;
59161;SDS011;44942;48.936;8.260;2024-02-16T21:20:24;1.67;;;1.45;;
59161;SDS011;44942;48.936;8.260;2024-02-16T21:25:24;2.00;;;1.58;;
59161;SDS011;44942;48.936;8.260;2024-02-16T21:30:25;1.63;;;1.45;;
59161;SDS011;44942;48.936;8.260;2024-02-16T21:35:25;2.60;;;1.30;;
59161;SDS011;44942;48.936;8.260;2024-02-16T21:40:28;1.48;;;1.30;;
59161;SDS011;44942;48.936;8.260;2024-02-16T21:45:33;2.67;;;1.60;;
59161;SDS011;44942;48.936;8.260;2024-02-16T21:50:34;1.90;;;1.27;;
59161;SDS011;44942;48.936;8.260;2024-02-16T21:55:35;2.03;;;1.40;;
59161;SDS011;44942;48.936;8.260;2024-02-16T22:00:35;1.87;;;1.40;;
59161;SDS011;44942;48.936;8.260;2024-02-16T22:05:36;2.15;;;1.30;;
59161;SDS011;44942;48.936;8.260;2024-02-16T22:10:36;2.33;;;1.33;;
59161;SDS011;44942;48.936;8.260;2024-02-16T22:15:39;1.70;;;1.30;;
59161;SDS011;44942;48.936;8.260;2024-02-16T22:20:45;13.15;;;1.70;;
59161;SDS011;44942;48.936;8.260;2024-02-16T22:25:45;11.30;;;2.07;;
59161;SDS011;44942;48.936;8.260;2024-02-16T22:35:47;11.83;;;2.10;;
59161;SDS011;44942;48.936;8.260;2024-02-16T22:40:48;3.63;;;1.33;;
59161;SDS011;44942;48.936;8.260;2024-02-16T22:45:50;3.65;;;1.17;;
59161;SDS011;44942;48.936;8.260;2024-02-16T22:50:51;3.22;;;1.40;;
59161;SDS011;44942;48.936;8.260;2024-02-16T22:55:51;4.35;;;1.38;;
59161;SDS011;44942;48.936;8.260;2024-02-16T23:00:53;2.13;;;1.30;;
59161;SDS011;44942;48.936;8.260;2024-02-16T23:05:56;1.85;;;1.23;;
59161;SDS011;44942;48.936;8.260;2024-02-16T23:10:59;1.80;;;1.17;;
59161;SDS011;44942;48.936;8.260;2024-02-16T23:15:59;1.27;;;1.00;;
59161;SDS011;44942;48.936;8.260;2024-02-16T23:21:00;1.87;;;1.10;;
59161;SDS011;44942;48.936;8.260;2024-02-16T23:26:02;1.83;;;1.10;;
59161;SDS011;44942;48.936;8.260;2024-02-16T23:31:03;2.72;;;1.17;;
59161;SDS011;44942;48.936;8.260;2024-02-16T23:36:04;1.90;;;1.00;;
59161;SDS011;44942;48.936;8.260;2024-02-16T23:41:04;1.92;;;1.20;;
59161;SDS011;44942;48.936;8.260;2024-02-16T23:51:08;1.35;;;0.98;;
59161;SDS011;44942;48.936;8.260;2024-02-16T23:56:08;1.17;;;1.00;;
